createdAt,value
2023-01-23T00:00:56.435Z,80.52
2023-01-23T00:01:56.417Z,80.79
2023-01-23T00:02:56.395Z,80.79
2023-01-23T00:03:56.440Z,80.93
2023-01-23T00:04:56.374Z,80.93
2023-01-23T00:05:56.367Z,80.68
2023-01-23T00:06:56.377Z,80.41
2023-01-23T00:07:56.348Z,80.73
2023-01-23T00:08:56.322Z,80.37
2023-01-23T00:09:56.327Z,80.27
2023-01-23T00:10:56.329Z,80.37
2023-01-23T00:11:56.326Z,80.16
2023-01-23T00:12:56.292Z,80.37
2023-01-23T00:13:56.275Z,80.16
2023-01-23T00:14:56.264Z,80.16
2023-01-23T00:15:56.291Z,80.27
2023-01-23T00:16:56.254Z,80.06
2023-01-23T00:17:56.254Z,80.06
2023-01-23T00:18:56.215Z,79.85
2023-01-23T00:19:56.205Z,80.06
2023-01-23T00:20:56.197Z,80.16
2023-01-23T00:21:56.187Z,80.16
2023-01-23T00:22:56.175Z,79.96
2023-01-23T00:23:56.229Z,80.47
2023-01-23T00:24:56.153Z,80.37
2023-01-23T00:25:56.143Z,80.47
2023-01-23T00:26:56.137Z,80.52
2023-01-23T00:27:56.128Z,80.58
2023-01-23T00:28:56.106Z,80.37
2023-01-23T00:29:56.114Z,80.73
2023-01-23T00:30:56.146Z,80.93
2023-01-23T00:31:56.102Z,81.24
2023-01-23T00:32:56.062Z,81.35
2023-01-23T00:33:56.055Z,81.10
2023-01-23T00:34:56.061Z,81.04
2023-01-23T00:35:56.032Z,81.10
2023-01-23T00:36:56.013Z,80.83
2023-01-23T00:37:56.025Z,81.14
2023-01-23T00:38:55.991Z,81.24
2023-01-23T00:39:55.991Z,81.45
2023-01-23T00:40:56.000Z,81.90
2023-01-23T00:41:55.972Z,81.87
2023-01-23T00:42:55.960Z,81.87
2023-01-23T00:43:55.945Z,81.97
2023-01-23T00:44:55.930Z,81.87
2023-01-23T00:45:55.921Z,81.35
2023-01-23T00:46:55.920Z,81.66
2023-01-23T00:47:55.908Z,81.66
2023-01-23T00:48:55.881Z,81.97
2023-01-23T00:49:55.871Z,81.87
2023-01-23T00:50:55.897Z,81.51
2023-01-23T00:51:55.871Z,81.30
2023-01-23T00:52:55.840Z,80.85
2023-01-23T00:53:55.830Z,80.44
2023-01-23T00:54:55.821Z,80.54
2023-01-23T00:55:55.816Z,80.33
2023-01-23T00:56:55.791Z,80.13
2023-01-23T00:57:55.800Z,80.13
2023-01-23T00:58:55.770Z,80.23
2023-01-23T00:59:55.761Z,80.62
2023-01-23T01:00:55.751Z,81.56
2023-01-23T01:01:55.822Z,81.56
2023-01-23T01:02:55.755Z,81.62
2023-01-23T01:03:55.744Z,81.41
2023-01-23T01:04:55.705Z,81.20
2023-01-23T01:05:55.698Z,81.10
2023-01-23T01:06:55.695Z,80.58
2023-01-23T01:07:55.679Z,81.20
2023-01-23T01:08:55.681Z,81.35
2023-01-23T01:09:55.649Z,81.66
2023-01-23T01:10:55.640Z,81.66
2023-01-23T01:11:55.636Z,82.18
2023-01-23T01:12:55.628Z,82.18
2023-01-23T01:13:55.612Z,82.32
2023-01-23T01:14:55.677Z,82.84
2023-01-23T01:15:55.610Z,82.84
2023-01-23T01:16:55.568Z,82.70
2023-01-23T01:17:55.569Z,82.28
2023-01-23T01:18:55.548Z,82.42
2023-01-23T01:19:55.566Z,82.63
2023-01-23T01:20:55.527Z,82.70
2023-01-23T01:21:55.518Z,82.39
2023-01-23T01:22:55.498Z,82.07
2023-01-23T01:23:55.514Z,81.76
2023-01-23T01:24:55.488Z,82.18
2023-01-23T01:25:55.487Z,82.18
2023-01-23T01:26:55.463Z,81.97
2023-01-23T01:27:55.447Z,82.07
2023-01-23T01:28:55.438Z,81.87
2023-01-23T01:29:55.426Z,82.32
2023-01-23T01:30:55.597Z,82.73
2023-01-23T01:31:55.462Z,82.63
2023-01-23T01:32:55.399Z,82.53
2023-01-23T01:33:55.386Z,82.53
2023-01-23T01:34:55.372Z,82.49
2023-01-23T01:35:55.364Z,82.53
2023-01-23T01:36:55.380Z,82.73
2023-01-23T01:37:55.346Z,82.53
2023-01-23T01:38:55.332Z,83.04
2023-01-23T01:39:55.318Z,82.94
2023-01-23T01:40:55.310Z,83.15
2023-01-23T01:41:55.307Z,83.04
2023-01-23T01:42:55.320Z,82.90
2023-01-23T01:43:55.277Z,82.84
2023-01-23T01:44:55.262Z,82.84
2023-01-23T01:45:55.256Z,83.15
2023-01-23T01:46:55.301Z,83.25
2023-01-23T01:47:55.239Z,83.46
2023-01-23T01:48:55.245Z,83.25
2023-01-23T01:49:55.204Z,83.46
2023-01-23T01:50:55.227Z,83.22
2023-01-23T01:51:55.190Z,82.94
2023-01-23T01:52:55.177Z,83.56
2023-01-23T01:53:55.165Z,83.36
2023-01-23T01:54:55.171Z,83.42
2023-01-23T01:55:55.144Z,83.36
2023-01-23T01:56:55.136Z,83.67
2023-01-23T01:57:55.131Z,83.42
2023-01-23T01:58:55.109Z,83.22
2023-01-23T01:59:55.131Z,83.25
2023-01-23T02:00:55.236Z,83.32
2023-01-23T02:01:55.094Z,83.04
2023-01-23T02:02:55.062Z,83.46
2023-01-23T02:03:55.054Z,83.46
2023-01-23T02:04:55.053Z,83.87
2023-01-23T02:05:55.057Z,83.63
2023-01-23T02:06:55.025Z,83.22
2023-01-23T02:07:55.028Z,83.22
2023-01-23T02:08:54.994Z,83.32
2023-01-23T02:09:54.999Z,83.04
2023-01-23T02:10:54.972Z,83.46
2023-01-23T02:11:54.993Z,83.63
2023-01-23T02:12:54.952Z,83.42
2023-01-23T02:13:54.952Z,83.11
2023-01-23T02:14:54.932Z,83.01
2023-01-23T02:15:54.921Z,83.01
2023-01-23T02:16:54.911Z,83.32
2023-01-23T02:17:54.932Z,83.42
2023-01-23T02:18:54.884Z,83.67
2023-01-23T02:19:54.872Z,83.67
2023-01-23T02:20:54.866Z,84.19
2023-01-23T02:21:54.860Z,83.98
2023-01-23T02:22:54.842Z,84.08
2023-01-23T02:23:54.853Z,84.19
2023-01-23T02:24:54.821Z,83.98
2023-01-23T02:25:54.813Z,84.08
2023-01-23T02:26:54.798Z,84.19
2023-01-23T02:27:54.794Z,84.39
2023-01-23T02:28:54.792Z,84.29
2023-01-23T02:29:54.764Z,84.08
2023-01-23T02:30:54.785Z,83.73
2023-01-23T02:31:54.768Z,83.56
2023-01-23T02:32:54.730Z,83.77
2023-01-23T02:33:54.722Z,83.87
2023-01-23T02:34:54.733Z,83.77
2023-01-23T02:35:54.706Z,83.36
2023-01-23T02:36:54.690Z,83.50
2023-01-23T02:37:54.696Z,84.19
2023-01-23T02:38:54.696Z,83.98
2023-01-23T02:39:54.655Z,83.77
2023-01-23T02:40:54.669Z,83.36
2023-01-23T02:41:54.643Z,83.56
2023-01-23T02:42:54.618Z,83.46
2023-01-23T02:43:54.616Z,83.46
2023-01-23T02:44:54.603Z,83.36
2023-01-23T02:45:54.624Z,83.56
2023-01-23T02:46:54.591Z,83.98
2023-01-23T02:47:54.569Z,83.87
2023-01-23T02:48:54.549Z,83.77
2023-01-23T02:49:54.558Z,83.39
2023-01-23T02:50:54.556Z,83.70
2023-01-23T02:51:54.523Z,83.91
2023-01-23T02:52:54.540Z,83.77
2023-01-23T02:53:54.509Z,83.56
2023-01-23T02:54:54.488Z,83.56
2023-01-23T02:55:54.478Z,83.25
2023-01-23T02:56:54.476Z,83.56
2023-01-23T02:57:54.462Z,83.36
2023-01-23T02:58:54.458Z,83.60
2023-01-23T02:59:54.439Z,83.77
2023-01-23T03:00:54.439Z,83.67
2023-01-23T03:01:54.435Z,83.25
2023-01-23T03:02:54.396Z,83.04
2023-01-23T03:03:54.408Z,83.04
2023-01-23T03:04:54.382Z,83.36
2023-01-23T03:05:54.377Z,82.73
2023-01-23T03:06:54.358Z,82.94
2023-01-23T03:07:54.346Z,82.94
2023-01-23T03:08:54.327Z,82.73
2023-01-23T03:09:54.345Z,82.63
2023-01-23T03:10:54.317Z,82.73
2023-01-23T03:11:54.307Z,82.63
2023-01-23T03:12:54.289Z,83.18
2023-01-23T03:13:54.276Z,83.36
2023-01-23T03:14:54.264Z,82.90
2023-01-23T03:15:54.266Z,82.32
2023-01-23T03:16:54.283Z,82.39
2023-01-23T03:17:54.237Z,82.18
2023-01-23T03:18:55.116Z,81.87
2023-01-23T03:19:54.210Z,82.07
2023-01-23T03:20:54.230Z,81.66
2023-01-23T03:21:54.186Z,81.70
2023-01-23T03:22:54.175Z,82.04
2023-01-23T03:23:54.175Z,82.73
2023-01-23T03:24:54.163Z,82.32
2023-01-23T03:25:54.145Z,82.21
2023-01-23T03:26:54.154Z,82.21
2023-01-23T03:27:54.125Z,82.21
2023-01-23T03:28:54.113Z,81.90
2023-01-23T03:29:54.106Z,82.15
2023-01-23T03:30:54.152Z,82.46
2023-01-23T03:31:54.175Z,82.56
2023-01-23T03:32:54.084Z,82.77
2023-01-23T03:33:54.065Z,82.67
2023-01-23T03:34:54.044Z,82.21
2023-01-23T03:35:54.057Z,81.80
2023-01-23T03:36:54.041Z,81.90
2023-01-23T03:37:54.013Z,81.80
2023-01-23T03:38:54.054Z,82.04
2023-01-23T03:39:53.991Z,81.80
2023-01-23T03:40:53.984Z,81.63
2023-01-23T03:41:53.983Z,82.56
2023-01-23T03:42:53.961Z,82.35
2023-01-23T03:43:53.947Z,82.25
2023-01-23T03:44:53.953Z,82.04
2023-01-23T03:45:53.967Z,82.04
2023-01-23T03:46:53.914Z,81.84
2023-01-23T03:47:53.906Z,81.63
2023-01-23T03:48:53.896Z,81.73
2023-01-23T03:49:53.903Z,81.94
2023-01-23T03:50:53.925Z,82.04
2023-01-23T03:51:53.873Z,81.94
2023-01-23T03:52:53.852Z,81.84
2023-01-23T03:53:53.837Z,81.63
2023-01-23T03:54:53.845Z,81.42
2023-01-23T03:55:53.844Z,81.87
2023-01-23T03:56:53.838Z,82.39
2023-01-23T03:57:53.795Z,82.25
2023-01-23T03:58:53.785Z,82.15
2023-01-23T03:59:53.772Z,82.39
2023-01-23T04:00:53.804Z,82.70
2023-01-23T04:01:53.793Z,82.50
2023-01-23T04:02:53.775Z,83.12
2023-01-23T04:03:53.741Z,83.33
2023-01-23T04:04:53.727Z,82.98
2023-01-23T04:05:53.702Z,82.87
2023-01-23T04:06:53.703Z,82.46
2023-01-23T04:07:53.733Z,82.35
2023-01-23T04:08:53.672Z,82.25
2023-01-23T04:09:53.661Z,82.25
2023-01-23T04:10:53.650Z,82.46
2023-01-23T04:11:53.639Z,82.46
2023-01-23T04:12:53.643Z,82.32
2023-01-23T04:13:53.640Z,82.35
2023-01-23T04:14:53.607Z,82.56
2023-01-23T04:15:53.602Z,82.77
2023-01-23T04:16:53.632Z,82.77
2023-01-23T04:17:53.570Z,82.77
2023-01-23T04:18:53.560Z,82.94
2023-01-23T04:19:53.561Z,82.63
2023-01-23T04:20:53.540Z,82.42
2023-01-23T04:21:53.529Z,82.63
2023-01-23T04:22:53.520Z,82.42
2023-01-23T04:23:53.509Z,82.73
2023-01-23T04:24:53.526Z,82.32
2023-01-23T04:25:53.516Z,82.21
2023-01-23T04:26:53.485Z,82.42
2023-01-23T04:27:53.467Z,82.21
2023-01-23T04:28:53.458Z,82.11
2023-01-23T04:29:53.438Z,82.01
2023-01-23T04:30:53.559Z,82.32
2023-01-23T04:31:53.444Z,82.18
2023-01-23T04:32:53.408Z,81.76
2023-01-23T04:33:53.399Z,81.49
2023-01-23T04:34:53.391Z,81.76
2023-01-23T04:35:53.390Z,81.56
2023-01-23T04:36:53.408Z,81.56
2023-01-23T04:37:53.351Z,81.24
2023-01-23T04:38:53.337Z,81.70
2023-01-23T04:39:53.328Z,81.80
2023-01-23T04:40:53.348Z,81.45
2023-01-23T04:41:53.307Z,81.59
2023-01-23T04:42:53.328Z,81.59
2023-01-23T04:43:53.280Z,81.35
2023-01-23T04:44:53.282Z,81.07
2023-01-23T04:45:53.304Z,81.49
2023-01-23T04:46:53.255Z,81.59
2023-01-23T04:47:53.239Z,81.49
2023-01-23T04:49:00.357Z,81.80
2023-01-23T04:49:53.219Z,82.04
2023-01-23T04:50:53.216Z,82.56
2023-01-23T04:51:53.217Z,82.77
2023-01-23T04:52:53.190Z,82.67
2023-01-23T04:53:53.184Z,82.67
2023-01-23T04:54:53.201Z,82.46
2023-01-23T04:55:53.149Z,82.87
2023-01-23T04:56:53.141Z,82.87
2023-01-23T04:57:53.128Z,83.08
2023-01-23T04:58:53.119Z,82.98
2023-01-23T04:59:53.109Z,82.84
2023-01-23T05:00:53.118Z,82.56
2023-01-23T05:01:53.081Z,82.77
2023-01-23T05:02:53.070Z,83.18
2023-01-23T05:03:53.061Z,82.73
2023-01-23T05:04:53.066Z,82.32
2023-01-23T05:05:53.057Z,82.21
2023-01-23T05:06:53.030Z,81.66
2023-01-23T05:07:53.021Z,81.80
2023-01-23T05:08:53.008Z,82.32
2023-01-23T05:09:52.999Z,82.21
2023-01-23T05:10:52.989Z,82.21
2023-01-23T05:11:52.989Z,82.07
2023-01-23T05:12:52.978Z,81.66
2023-01-23T05:13:52.951Z,81.14
2023-01-23T05:14:52.938Z,81.04
2023-01-23T05:15:52.979Z,80.89
2023-01-23T05:16:52.927Z,80.79
2023-01-23T05:17:52.929Z,80.73
2023-01-23T05:18:52.900Z,80.93
2023-01-23T05:19:52.891Z,80.93
2023-01-23T05:20:52.877Z,81.18
2023-01-23T05:21:52.867Z,81.35
2023-01-23T05:22:52.946Z,81.38
2023-01-23T05:23:52.880Z,81.80
2023-01-23T05:24:52.835Z,81.49
2023-01-23T05:25:52.821Z,81.70
2023-01-23T05:26:52.810Z,81.45
2023-01-23T05:27:52.796Z,81.04
2023-01-23T05:28:52.787Z,80.62
2023-01-23T05:29:52.803Z,80.37
2023-01-23T05:30:52.845Z,80.06
2023-01-23T05:31:52.771Z,79.85
2023-01-23T05:32:52.751Z,79.55
2023-01-23T05:33:52.741Z,79.69
2023-01-23T05:34:52.750Z,80.10
2023-01-23T05:35:52.726Z,80.24
2023-01-23T05:36:52.706Z,80.73
2023-01-23T05:37:52.755Z,80.55
2023-01-23T05:38:52.685Z,80.83
2023-01-23T05:39:52.669Z,80.41
2023-01-23T05:40:52.676Z,80.10
2023-01-23T05:41:52.646Z,80.31
2023-01-23T05:42:52.641Z,80.41
2023-01-23T05:43:52.625Z,80.21
2023-01-23T05:44:52.615Z,80.10
2023-01-23T05:45:52.624Z,80.10
2023-01-23T05:46:52.622Z,80.21
2023-01-23T05:47:52.574Z,80.31
2023-01-23T05:48:52.568Z,79.90
2023-01-23T05:49:52.555Z,79.75
2023-01-23T05:50:52.579Z,79.75
2023-01-23T05:51:52.534Z,79.55
2023-01-23T05:52:52.539Z,79.58
2023-01-23T05:53:52.513Z,79.58
2023-01-23T05:54:52.509Z,79.65
2023-01-23T05:55:52.491Z,79.44
2023-01-23T05:56:52.483Z,79.03
2023-01-23T05:57:52.489Z,79.48
2023-01-23T05:58:52.463Z,79.69
2023-01-23T05:59:52.443Z,79.75
2023-01-23T06:00:52.433Z,79.65
2023-01-23T06:01:52.433Z,79.34
2023-01-23T06:02:52.456Z,78.92
2023-01-23T06:03:52.465Z,79.03
2023-01-23T06:04:54.924Z,78.92
2023-01-23T06:05:52.373Z,78.58
2023-01-23T06:06:52.373Z,78.37
2023-01-23T06:07:52.359Z,78.47
2023-01-23T06:08:52.357Z,78.37
2023-01-23T06:09:52.354Z,78.41
2023-01-23T06:10:52.324Z,78.61
2023-01-23T06:11:52.329Z,79.24
2023-01-23T06:12:52.303Z,79.48
2023-01-23T06:13:52.302Z,79.79
2023-01-23T06:14:52.282Z,80.10
2023-01-23T06:15:52.337Z,79.90
2023-01-23T06:16:52.263Z,79.90
2023-01-23T06:17:52.275Z,80.21
2023-01-23T06:18:52.241Z,80.21
2023-01-23T06:19:52.223Z,80.31
2023-01-23T06:20:52.232Z,80.41
2023-01-23T06:21:52.201Z,80.21
2023-01-23T06:22:52.191Z,80.55
2023-01-23T06:23:52.181Z,80.76
2023-01-23T06:24:52.183Z,80.87
2023-01-23T06:25:52.159Z,80.87
2023-01-23T06:26:52.181Z,81.07
2023-01-23T06:27:54.726Z,80.87
2023-01-23T06:28:52.126Z,80.66
2023-01-23T06:29:52.111Z,80.52
2023-01-23T06:30:52.162Z,80.35
2023-01-23T06:31:52.151Z,80.35
2023-01-23T06:32:52.101Z,80.55
2023-01-23T06:33:52.075Z,80.66
2023-01-23T06:34:52.096Z,80.76
2023-01-23T06:35:52.051Z,80.76
2023-01-23T06:36:52.058Z,80.76
2023-01-23T06:37:52.045Z,80.97
2023-01-23T06:38:52.033Z,81.11
2023-01-23T06:39:52.007Z,81.63
2023-01-23T06:40:52.003Z,81.63
2023-01-23T06:41:52.006Z,81.63
2023-01-23T06:42:51.970Z,81.52
2023-01-23T06:43:51.949Z,81.35
2023-01-23T06:44:52.047Z,81.87
2023-01-23T06:45:51.942Z,81.94
2023-01-23T06:46:51.933Z,81.73
2023-01-23T06:47:51.909Z,81.77
2023-01-23T06:48:51.910Z,81.87
2023-01-23T06:49:51.890Z,81.77
2023-01-23T06:50:51.940Z,82.08
2023-01-23T06:51:51.876Z,82.39
2023-01-23T06:52:51.872Z,82.18
2023-01-23T06:53:51.860Z,81.87
2023-01-23T06:54:51.839Z,82.08
2023-01-23T06:55:51.850Z,82.50
2023-01-23T06:56:51.818Z,82.50
2023-01-23T06:57:51.804Z,82.18
2023-01-23T06:58:51.802Z,81.87
2023-01-23T06:59:51.779Z,82.18
2023-01-23T07:00:51.769Z,81.87
2023-01-23T07:01:51.797Z,81.98
2023-01-23T07:02:51.794Z,81.98
2023-01-23T07:03:51.812Z,82.08
2023-01-23T07:04:51.739Z,81.77
2023-01-23T07:05:51.716Z,82.22
2023-01-23T07:06:51.707Z,82.84
2023-01-23T07:07:51.707Z,82.60
2023-01-23T07:08:51.692Z,82.50
2023-01-23T07:09:51.671Z,81.98
2023-01-23T07:10:51.666Z,81.46
2023-01-23T07:11:51.648Z,81.15
2023-01-23T07:12:51.656Z,81.25
2023-01-23T07:13:51.640Z,81.15
2023-01-23T07:14:51.616Z,81.04
2023-01-23T07:15:51.632Z,81.18
2023-01-23T07:16:51.596Z,81.91
2023-01-23T07:17:51.588Z,82.01
2023-01-23T07:18:51.597Z,81.70
2023-01-23T07:19:51.559Z,82.15
2023-01-23T07:20:51.570Z,82.15
2023-01-23T07:21:51.537Z,82.57
2023-01-23T07:22:51.530Z,82.89
2023-01-23T07:23:51.528Z,83.20
2023-01-23T07:24:51.527Z,83.54
2023-01-23T07:25:51.496Z,83.75
2023-01-23T07:26:51.485Z,83.72
2023-01-23T07:27:51.474Z,83.40
2023-01-23T07:28:51.468Z,83.40
2023-01-23T07:29:51.456Z,83.40
2023-01-23T07:30:51.505Z,83.65
2023-01-23T07:31:51.475Z,84.06
2023-01-23T07:32:51.445Z,84.17
2023-01-23T07:33:51.408Z,83.96
2023-01-23T07:34:51.396Z,83.96
2023-01-23T07:35:51.385Z,83.96
2023-01-23T07:36:51.385Z,83.96
2023-01-23T07:37:51.364Z,83.75
2023-01-23T07:38:51.387Z,83.75
2023-01-23T07:39:51.350Z,83.86
2023-01-23T07:40:51.333Z,83.96
2023-01-23T07:41:51.343Z,83.65
2023-01-23T07:42:51.307Z,83.44
2023-01-23T07:43:51.293Z,83.86
2023-01-23T07:44:51.291Z,83.75
2023-01-23T07:45:51.272Z,83.96
2023-01-23T07:46:51.281Z,84.27
2023-01-23T07:47:51.316Z,84.06
2023-01-23T07:48:51.234Z,84.17
2023-01-23T07:49:51.240Z,84.03
2023-01-23T07:50:51.276Z,83.72
2023-01-23T07:51:51.355Z,83.26
2023-01-23T07:52:51.196Z,82.43
2023-01-23T07:53:51.239Z,82.08
2023-01-23T07:54:51.172Z,81.15
2023-01-23T07:55:51.161Z,80.52
2023-01-23T07:56:51.162Z,80.59
2023-01-23T07:57:51.143Z,79.93
2023-01-23T07:58:51.143Z,79.27
2023-01-23T07:59:51.124Z,78.47
2023-01-23T08:00:51.122Z,77.44
2023-01-23T08:01:51.099Z,76.98
2023-01-23T08:02:51.081Z,75.92
2023-01-23T08:03:51.098Z,75.22
2023-01-23T08:04:51.091Z,74.81
2023-01-23T08:05:51.049Z,74.46
2023-01-23T08:06:51.051Z,74.63
2023-01-23T08:07:53.817Z,73.98
2023-01-23T08:08:52.029Z,73.12
2023-01-23T08:09:51.011Z,72.74
2023-01-23T08:10:51.009Z,71.57
2023-01-23T08:11:51.002Z,69.68
2023-01-23T08:12:50.975Z,69.68
2023-01-23T08:13:50.988Z,69.06
2023-01-23T08:14:50.954Z,68.62
2023-01-23T08:15:50.961Z,68.24
2023-01-23T08:16:50.945Z,68.41
2023-01-23T08:17:50.933Z,68.17
2023-01-23T08:18:50.919Z,67.21
2023-01-23T08:19:50.920Z,66.97
2023-01-23T08:20:50.896Z,66.46
2023-01-23T08:21:50.899Z,66.05
2023-01-23T08:22:50.864Z,66.30
2023-01-23T08:23:50.852Z,65.75
2023-01-23T08:24:50.831Z,64.79
2023-01-23T08:25:50.854Z,63.74
2023-01-23T08:26:50.839Z,62.51
2023-01-23T08:27:50.812Z,62.48
2023-01-23T08:28:50.793Z,61.30
2023-01-23T08:29:50.783Z,62.90
2023-01-23T08:30:50.813Z,63.99
2023-01-23T08:31:50.783Z,64.71
2023-01-23T08:32:50.761Z,64.27
2023-01-23T08:33:50.738Z,63.65
2023-01-23T08:34:50.739Z,63.45
2023-01-23T08:35:50.730Z,63.68
2023-01-23T08:36:50.716Z,64.43
2023-01-23T08:37:50.718Z,65.83
2023-01-23T08:38:50.680Z,65.98
2023-01-23T08:39:50.668Z,65.02
2023-01-23T08:40:50.658Z,64.15
2023-01-23T08:41:50.668Z,65.62
2023-01-23T08:42:50.637Z,65.97
2023-01-23T08:43:50.641Z,67.27
2023-01-23T08:44:50.724Z,68.51
2023-01-23T08:45:50.640Z,68.30
2023-01-23T08:46:50.589Z,68.19
2023-01-23T08:47:50.598Z,68.54
2023-01-23T08:48:50.611Z,69.02
2023-01-23T08:49:50.583Z,69.12
2023-01-23T08:50:50.572Z,68.74
2023-01-23T08:51:50.533Z,70.05
2023-01-23T08:52:50.532Z,70.87
2023-01-23T08:53:50.524Z,70.98
2023-01-23T08:54:50.537Z,70.98
2023-01-23T08:55:50.488Z,71.12
2023-01-23T08:56:50.478Z,71.67
2023-01-23T08:57:50.475Z,72.39
2023-01-23T08:58:50.473Z,72.71
2023-01-23T08:59:50.471Z,72.71
2023-01-23T09:00:50.460Z,72.84
2023-01-23T09:01:50.476Z,72.91
2023-01-23T09:02:50.414Z,72.98
2023-01-23T09:03:50.400Z,72.50
2023-01-23T09:04:50.394Z,72.60
2023-01-23T09:05:50.397Z,72.56
2023-01-23T09:06:50.439Z,72.22
2023-01-23T09:07:50.356Z,71.88
2023-01-23T09:08:50.346Z,71.36
2023-01-23T09:09:50.349Z,71.53
2023-01-23T09:10:50.352Z,70.81
2023-01-23T09:11:50.316Z,70.16
2023-01-23T09:12:50.312Z,70.12
2023-01-23T09:13:52.308Z,69.51
2023-01-23T09:14:50.283Z,68.88
2023-01-23T09:15:50.275Z,68.48
2023-01-23T09:16:50.378Z,68.88
2023-01-23T09:17:50.256Z,68.85
2023-01-23T09:18:50.245Z,68.59
2023-01-23T09:19:50.229Z,67.00
2023-01-23T09:20:50.206Z,66.09
2023-01-23T09:21:50.227Z,64.00
2023-01-23T09:22:50.209Z,63.49
2023-01-23T09:23:50.187Z,63.17
2023-01-23T09:24:50.172Z,64.98
2023-01-23T09:25:50.156Z,66.24
2023-01-23T09:26:50.146Z,66.24
2023-01-23T09:27:50.146Z,66.48
2023-01-23T09:28:50.127Z,67.44
2023-01-23T09:29:50.115Z,68.40
2023-01-23T09:30:50.113Z,68.92
2023-01-23T09:31:50.167Z,69.02
2023-01-23T09:32:50.136Z,69.37
2023-01-23T09:33:50.098Z,69.12
2023-01-23T09:34:50.046Z,68.64
2023-01-23T09:35:50.047Z,68.85
2023-01-23T09:36:50.031Z,68.85
2023-01-23T09:37:50.017Z,69.06
2023-01-23T09:38:50.036Z,69.09
2023-01-23T09:39:49.997Z,68.74
2023-01-23T09:40:49.995Z,68.43
2023-01-23T09:41:50.000Z,68.26
2023-01-23T09:42:49.961Z,68.85
2023-01-23T09:43:49.963Z,69.47
2023-01-23T09:44:49.967Z,69.06
2023-01-23T09:45:49.970Z,69.16
2023-01-23T09:46:49.915Z,69.16
2023-01-23T09:47:51.487Z,69.19
2023-01-23T09:48:49.909Z,69.60
2023-01-23T09:49:49.886Z,69.81
2023-01-23T09:50:49.918Z,70.26
2023-01-23T09:51:49.855Z,70.67
2023-01-23T09:52:49.879Z,70.22
2023-01-23T09:53:49.837Z,70.22
2023-01-23T09:54:49.824Z,70.22
2023-01-23T09:55:49.834Z,70.36
2023-01-23T09:56:49.806Z,70.67
2023-01-23T09:57:49.795Z,70.87
2023-01-23T09:58:49.774Z,71.05
2023-01-23T09:59:59.907Z,70.50
2023-01-23T10:00:50.793Z,70.09
2023-01-23T10:01:49.754Z,70.29
2023-01-23T10:02:49.886Z,70.09
2023-01-23T10:03:49.725Z,70.40
2023-01-23T10:04:49.726Z,70.81
2023-01-23T10:05:49.724Z,71.12
2023-01-23T10:06:49.717Z,70.71
2023-01-23T10:07:49.698Z,70.64
2023-01-23T10:08:49.666Z,71.33
2023-01-23T10:09:49.667Z,71.53
2023-01-23T10:10:49.643Z,70.88
2023-01-23T10:11:49.643Z,70.47
2023-01-23T10:12:49.647Z,70.37
2023-01-23T10:13:49.620Z,70.47
2023-01-23T10:14:49.604Z,70.47
2023-01-23T10:15:49.594Z,71.02
2023-01-23T10:16:51.014Z,71.67
2023-01-23T10:17:49.597Z,72.19
2023-01-23T10:18:49.565Z,72.16
2023-01-23T10:19:49.553Z,72.29
2023-01-23T10:20:49.537Z,72.50
2023-01-23T10:21:49.540Z,72.60
2023-01-23T10:22:49.518Z,72.81
2023-01-23T10:23:49.537Z,72.57
2023-01-23T10:24:49.504Z,72.36
2023-01-23T10:25:49.486Z,72.33
2023-01-23T10:26:49.475Z,71.81
2023-01-23T10:27:49.464Z,71.19
2023-01-23T10:28:49.488Z,71.40
2023-01-23T10:29:49.434Z,72.05
2023-01-23T10:30:49.543Z,72.33
2023-01-23T10:31:49.445Z,71.81
2023-01-23T10:32:49.441Z,71.33
2023-01-23T10:33:49.433Z,72.16
2023-01-23T10:34:49.396Z,71.71
2023-01-23T10:35:49.373Z,71.26
2023-01-23T10:36:54.758Z,71.40
2023-01-23T10:37:50.353Z,71.64
2023-01-23T10:38:49.337Z,72.50
2023-01-23T10:39:49.344Z,72.81
2023-01-23T10:40:49.324Z,73.15
2023-01-23T10:41:54.397Z,73.43
2023-01-23T10:42:50.291Z,73.29
2023-01-23T10:43:49.297Z,72.47
2023-01-23T10:44:49.261Z,72.91
2023-01-23T10:45:49.344Z,73.02
2023-01-23T10:46:49.245Z,73.12
2023-01-23T10:47:54.538Z,73.19
2023-01-23T10:48:50.227Z,72.53
2023-01-23T10:49:49.219Z,71.84
2023-01-23T10:50:49.303Z,72.47
2023-01-23T10:51:49.194Z,72.05
2023-01-23T10:52:49.193Z,72.16
2023-01-23T10:53:57.933Z,72.08
2023-01-23T10:54:49.182Z,72.60
2023-01-23T10:55:49.164Z,72.50
2023-01-23T10:56:49.164Z,72.91
2023-01-23T10:57:49.273Z,72.78
2023-01-23T10:58:49.113Z,71.95
2023-01-23T10:59:49.103Z,72.33
2023-01-23T11:00:49.094Z,71.84
2023-01-23T11:01:57.343Z,71.37
2023-01-23T11:02:50.115Z,70.64
2023-01-23T11:03:49.060Z,70.51
2023-01-23T11:04:49.076Z,70.37
2023-01-23T11:05:52.935Z,71.33
2023-01-23T11:06:49.022Z,71.88
2023-01-23T11:07:49.059Z,71.37
2023-01-23T11:08:49.002Z,70.72
2023-01-23T11:09:48.990Z,69.71
2023-01-23T11:10:48.976Z,70.75
2023-01-23T11:11:48.984Z,70.75
2023-01-23T11:12:48.967Z,70.40
2023-01-23T11:13:49.012Z,69.71
2023-01-23T11:14:48.991Z,70.06
2023-01-23T11:15:48.995Z,70.92
2023-01-23T11:16:48.901Z,71.19
2023-01-23T11:17:48.902Z,70.61
2023-01-23T11:18:48.881Z,71.57
2023-01-23T11:19:48.902Z,71.84
2023-01-23T11:20:48.903Z,71.64
2023-01-23T11:21:48.894Z,71.33
2023-01-23T11:22:48.841Z,71.64
2023-01-23T11:23:48.841Z,71.84
2023-01-23T11:24:48.810Z,71.19
2023-01-23T11:25:48.829Z,71.30
2023-01-23T11:26:48.820Z,71.19
2023-01-23T11:27:48.804Z,70.95
2023-01-23T11:28:48.788Z,70.30
2023-01-23T11:29:48.769Z,69.34
2023-01-23T11:30:48.831Z,68.75
2023-01-23T11:31:48.990Z,69.13
2023-01-23T11:32:48.734Z,68.82
2023-01-23T11:33:48.726Z,68.99
2023-01-23T11:34:48.700Z,69.51
2023-01-23T11:35:48.697Z,69.68
2023-01-23T11:36:48.744Z,69.24
2023-01-23T11:37:48.721Z,68.62
2023-01-23T11:38:52.859Z,68.62
2023-01-23T11:39:48.655Z,68.90
2023-01-23T11:40:48.653Z,68.62
2023-01-23T11:41:48.634Z,69.03
2023-01-23T11:42:48.623Z,69.54
2023-01-23T11:43:48.639Z,68.62
2023-01-23T11:44:48.593Z,69.00
2023-01-23T11:45:48.681Z,69.13
2023-01-23T11:46:48.576Z,68.48
2023-01-23T11:47:48.559Z,68.79
2023-01-23T11:48:48.579Z,68.41
2023-01-23T11:49:50.147Z,68.03
2023-01-23T11:50:55.331Z,68.24
2023-01-23T11:51:49.518Z,68.13
2023-01-23T11:52:48.499Z,68.30
2023-01-23T11:53:48.502Z,68.82
2023-01-23T11:54:48.499Z,68.90
2023-01-23T11:55:48.481Z,68.07
2023-01-23T11:56:48.473Z,67.97
2023-01-23T11:57:48.466Z,68.51
2023-01-23T11:58:50.358Z,69.31
2023-01-23T11:59:48.440Z,69.59
2023-01-23T12:00:48.412Z,68.35
2023-01-23T12:02:02.104Z,68.01
2023-01-23T12:02:49.425Z,67.60
2023-01-23T12:03:48.416Z,66.97
2023-01-23T12:04:48.370Z,66.67
2023-01-23T12:05:48.369Z,66.25
2023-01-23T12:06:48.363Z,66.67
2023-01-23T12:07:48.347Z,66.91
2023-01-23T12:08:48.328Z,67.29
2023-01-23T12:09:48.309Z,67.60
2023-01-23T12:10:48.313Z,66.53
2023-01-23T12:11:48.302Z,67.05
2023-01-23T12:12:48.305Z,66.43
2023-01-23T12:13:48.268Z,66.25
2023-01-23T12:14:48.260Z,67.18
2023-01-23T12:15:48.337Z,66.97
2023-01-23T12:16:48.277Z,67.32
2023-01-23T12:17:48.228Z,67.45
2023-01-23T12:18:48.214Z,68.07
2023-01-23T12:19:48.206Z,67.97
2023-01-23T12:20:48.497Z,68.14
2023-01-23T12:21:48.178Z,67.73
2023-01-23T12:22:48.189Z,68.24
2023-01-23T12:23:48.163Z,68.69
2023-01-23T12:24:48.148Z,68.45
2023-01-23T12:25:48.145Z,67.86
2023-01-23T12:26:48.128Z,68.27
2023-01-23T12:27:48.151Z,68.69
2023-01-23T12:28:48.120Z,68.69
2023-01-23T12:29:48.106Z,68.73
2023-01-23T12:30:48.090Z,67.97
2023-01-23T12:31:48.264Z,67.83
2023-01-23T12:32:48.066Z,68.21
2023-01-23T12:33:48.041Z,67.80
2023-01-23T12:34:48.080Z,67.73
2023-01-23T12:35:48.024Z,68.17
2023-01-23T12:37:06.215Z,68.48
2023-01-23T12:37:48.999Z,68.38
2023-01-23T12:38:47.994Z,68.72
2023-01-23T12:39:48.018Z,69.03
2023-01-23T12:40:47.966Z,69.75
2023-01-23T12:41:47.946Z,69.75
2023-01-23T12:42:47.938Z,69.62
2023-01-23T12:43:47.941Z,69.20
2023-01-23T12:44:47.951Z,69.34
2023-01-23T12:45:47.917Z,69.44
2023-01-23T12:46:47.956Z,69.62
2023-01-23T12:47:47.891Z,69.62
2023-01-23T12:48:47.876Z,69.41
2023-01-23T12:49:47.856Z,69.17
2023-01-23T12:50:48.070Z,68.83
2023-01-23T12:51:47.886Z,68.55
2023-01-23T12:52:47.935Z,68.59